Terminal Aerodrome Forecast
Issued by NWS Atlanta, GA

Home | Current Version | Previous Version | Text Only | Print | Product List | Glossary On
Versions: 1 2 3 4 5 6 7 8 9 10 11 12 13 14 15 16 17
000
FTUS42 KFFC 252321
TAFCSG
TAF
KCSG 252321Z 2600/2624 15007KT 6SM -SHRA SCT035 BKN080
      TEMPO 2600/2602 VRB12G18KT 3SM TSRA BR BKN025CB
     FM260200 13005KT P6SM VCSH SCT025 BKN040
     FM260500 13004KT P6SM VCSH OVC018
     FM260800 14004KT P6SM OVC007
     FM261500 15005KT P6SM OVC012
     FM261700 16007KT P6SM -SHRA OVC025
      TEMPO 2620/2624 3SM TSRA BR OVC015CB=

USA.gov is the U.S. government's official web portal to all federal, state and local government web resources and services.